Terminal Aerodrome Forecast
Issued by NWS

Home | Current Version | Previous Version | Text Only | Print | Product List | Glossary On
Versions: 1 2 3 4 5 6 7 8 9 10 11 12 13 14 15 16
000
FTUS41 KCAR 021148
TAFFVE
TAF
KFVE 021148Z 0212/0312 VRB03KT 2SM -SN OVC035
     FM021300 VRB03KT 3SM -SN OVC030
     FM021600 30007KT P6SM OVC030
     FM021800 30011KT P6SM BKN035
     FM022100 30015G23KT 1SM -SHSN BKN035
     FM030000 30016G35KT P6SM SCT250=

USA.gov is the U.S. government's official web portal to all federal, state and local government web resources and services.